Time;durP1;ratioP1;P1;durP2;ratioP2;P2;SDS_P1;SDS_P2;PMS_P1;PMS_P2;Temp;Humidity;BMP_temperature;BMP_pressure;BME280_temperature;BME280_humidity;BME280_pressure;Samples;Min_cycle;Max_cycle;Signal;HPM_P1;HPM_P2
2021/12/04 00:01:48;;;;;;;13.77;8.90;;;5.00;75.10;;;;;;4971648;28;20440;-71
2021/12/04 00:04:20;;;;;;;10.93;7.47;;;5.00;76.30;;;;;;4970126;28;20416;-69
2021/12/04 00:06:46;;;;;;;8.77;6.73;;;5.00;74.70;;;;;;4971461;28;20516;-69
2021/12/04 00:09:14;;;;;;;12.73;7.87;;;5.10;76.30;;;;;;4971440;28;20419;-69
2021/12/04 00:11:50;;;;;;;14.63;8.50;;;5.10;75.90;;;;;;4971464;28;20197;-71
2021/12/04 00:14:16;;;;;;;11.87;7.80;;;5.10;76.00;;;;;;4973406;28;20412;-70
2021/12/04 00:16:42;;;;;;;15.30;7.63;;;5.10;74.40;;;;;;4974888;28;20421;-69
2021/12/04 00:19:07;;;;;;;13.80;10.57;;;5.10;73.80;;;;;;4974744;28;20185;-69
2021/12/04 00:21:33;;;;;;;10.10;8.13;;;5.10;72.50;;;;;;4974734;28;20177;-71
2021/12/04 00:23:59;;;;;;;11.80;7.07;;;5.00;72.60;;;;;;4973292;28;20182;-70
2021/12/04 00:26:24;;;;;;;9.70;7.03;;;5.00;71.60;;;;;;4974763;28;20206;-71
2021/12/04 00:28:53;;;;;;;18.83;8.17;;;5.00;72.20;;;;;;4974772;28;20323;-71
2021/12/04 00:31:18;;;;;;;15.73;8.20;;;5.00;73.00;;;;;;4974544;28;20194;-70
2021/12/04 00:33:46;;;;;;;7.90;6.83;;;4.90;72.20;;;;;;4973684;28;20869;-70
2021/12/04 00:36:26;;;;;;;14.40;9.53;;;5.00;73.80;;;;;;4973274;28;20550;-70
2021/12/04 00:49:48;;;;;;;19.47;10.07;;;5.10;75.60;;;;;;4974550;28;20451;-70
2021/12/04 00:52:13;;;;;;;12.60;7.67;;;5.10;74.80;;;;;;4973619;28;20828;-71
2021/12/04 00:54:39;;;;;;;18.77;10.43;;;5.00;75.00;;;;;;4974326;28;20623;-70
2021/12/04 00:57:05;;;;;;;23.23;11.80;;;5.00;75.70;;;;;;4973207;28;20251;-69
2021/12/04 00:59:31;;;;;;;15.30;8.97;;;5.00;76.30;;;;;;4972973;28;20235;-72
2021/12/04 01:01:56;;;;;;;20.10;10.60;;;5.00;76.30;;;;;;4972395;28;20516;-71
2021/12/04 01:04:23;;;;;;;18.60;10.73;;;4.90;76.20;;;;;;4973479;28;20634;-69
2021/12/04 01:06:49;;;;;;;14.90;10.67;;;5.10;76.30;;;;;;4974156;28;20197;-69
2021/12/04 01:09:17;;;;;;;18.23;8.87;;;5.00;76.30;;;;;;4974153;28;20790;-69
2021/12/04 01:11:43;;;;;;;20.30;10.17;;;5.00;76.30;;;;;;4973921;28;20872;-70
2021/12/04 01:14:11;;;;;;;16.70;8.67;;;5.00;76.50;;;;;;4973208;28;20819;-70
2021/12/04 01:16:37;;;;;;;17.40;10.83;;;5.00;77.10;;;;;;4973995;28;20421;-69
2021/12/04 01:19:03;;;;;;;14.63;9.20;;;5.10;78.20;;;;;;4972117;28;20414;-70
2021/12/04 01:21:29;;;;;;;18.77;10.87;;;5.10;77.80;;;;;;4972644;28;20413;-69
2021/12/04 01:23:55;;;;;;;16.47;10.57;;;5.10;77.70;;;;;;4972035;28;20429;-69
2021/12/04 01:26:21;;;;;;;14.90;10.70;;;5.10;76.90;;;;;;4973196;28;20593;-70
2021/12/04 01:28:47;;;;;;;18.20;9.87;;;5.10;76.90;;;;;;4973977;28;20420;-70
2021/12/04 01:31:13;;;;;;;16.80;9.47;;;5.10;77.30;;;;;;4973863;28;20526;-69
2021/12/04 01:33:39;;;;;;;14.07;8.50;;;5.10;76.80;;;;;;4972820;28;20879;-69
2021/12/04 01:36:05;;;;;;;28.20;10.33;;;5.10;76.80;;;;;;4972657;28;20444;-71
2021/12/04 01:38:30;;;;;;;20.80;10.33;;;5.10;77.50;;;;;;4972988;28;20181;-71
2021/12/04 01:40:56;;;;;;;19.43;11.53;;;5.10;77.30;;;;;;4973771;28;20213;-71
2021/12/04 01:43:22;;;;;;;22.07;11.60;;;5.10;78.20;;;;;;4972762;28;20175;-71
2021/12/04 01:45:47;;;;;;;14.57;11.93;;;5.10;78.60;;;;;;4972143;28;20210;-70
2021/12/04 01:48:13;;;;;;;25.87;13.50;;;5.10;79.00;;;;;;4973524;28;20205;-70
2021/12/04 01:50:39;;;;;;;20.50;11.40;;;5.10;79.10;;;;;;4973544;28;20227;-70
2021/12/04 01:53:05;;;;;;;23.33;10.73;;;5.10;78.40;;;;;;4972541;28;20249;-70
2021/12/04 01:55:34;;;;;;;20.40;9.30;;;5.10;78.00;;;;;;4972791;28;20581;-70
2021/12/04 01:58:01;;;;;;;22.80;10.73;;;5.10;78.50;;;;;;4973304;28;20460;-70
2021/12/04 02:00:29;;;;;;;21.50;12.70;;;5.10;77.40;;;;;;4973363;28;20412;-71
2021/12/04 02:02:55;;;;;;;21.90;11.07;;;5.10;78.40;;;;;;4972547;28;20405;-70
2021/12/04 02:05:20;;;;;;;17.07;9.67;;;5.10;78.90;;;;;;4973191;28;20436;-70
2021/12/04 02:07:46;;;;;;;18.03;9.17;;;5.00;78.70;;;;;;4973233;28;20202;-70
2021/12/04 02:10:12;;;;;;;19.60;9.50;;;5.10;79.20;;;;;;4973061;28;20563;-71
2021/12/04 02:12:38;;;;;;;18.30;10.40;;;5.00;78.80;;;;;;4972505;28;20405;-69
2021/12/04 02:15:06;;;;;;;14.30;10.37;;;5.00;78.80;;;;;;4972352;28;20401;-69
2021/12/04 02:17:32;;;;;;;20.60;11.77;;;5.00;79.50;;;;;;4973076;28;20413;-70
2021/12/04 02:19:58;;;;;;;16.97;9.60;;;5.00;79.50;;;;;;4973003;28;20405;-70
2021/12/04 02:22:24;;;;;;;22.43;10.97;;;5.00;79.80;;;;;;4972052;28;20435;-70
2021/12/04 02:24:49;;;;;;;19.23;10.37;;;5.00;81.00;;;;;;4972989;28;20405;-70
2021/12/04 02:27:15;;;;;;;26.20;12.33;;;5.00;81.10;;;;;;4971720;28;20264;-70
2021/12/04 02:29:48;;;;;;;18.00;11.77;;;5.10;81.90;;;;;;4973156;28;20377;-69
2021/12/04 02:32:15;;;;;;;23.70;12.43;;;5.00;81.70;;;;;;4971209;28;20201;-70
2021/12/04 02:34:41;;;;;;;18.10;12.50;;;5.00;82.10;;;;;;4973002;28;20470;-70
2021/12/04 02:37:08;;;;;;;23.03;11.23;;;5.00;82.60;;;;;;4971683;28;20425;-69
2021/12/04 02:39:36;;;;;;;22.00;10.60;;;5.00;83.10;;;;;;4972826;28;21004;-69
2021/12/04 02:42:06;;;;;;;23.17;11.40;;;5.10;83.80;;;;;;4971962;28;20409;-72
2021/12/04 02:44:38;;;;;;;20.37;11.60;;;5.00;83.70;;;;;;4972580;28;20440;-70
2021/12/04 02:47:05;;;;;;;18.60;9.27;;;5.00;83.20;;;;;;4972589;28;20421;-69
2021/12/04 02:49:31;;;;;;;19.17;10.63;;;5.00;83.90;;;;;;4972628;28;20496;-69
2021/12/04 02:52:04;;;;;;;20.53;12.20;;;5.00;84.40;;;;;;4971606;28;20551;-70
2021/12/04 02:54:31;;;;;;;20.03;9.93;;;5.00;84.20;;;;;;4972460;28;20897;-72
2021/12/04 02:56:57;;;;;;;21.70;10.07;;;5.00;85.10;;;;;;4972517;28;20421;-70
2021/12/04 02:59:23;;;;;;;18.53;9.47;;;5.00;85.30;;;;;;4972630;28;20409;-70
2021/12/04 03:01:52;;;;;;;21.77;11.87;;;5.00;85.30;;;;;;4972254;28;20253;-70
2021/12/04 03:04:19;;;;;;;17.60;9.60;;;5.00;85.30;;;;;;4971789;28;20491;-70
2021/12/04 03:06:46;;;;;;;16.70;9.67;;;5.00;85.40;;;;;;4972244;28;20429;-70
2021/12/04 03:09:13;;;;;;;17.90;9.83;;;5.10;85.50;;;;;;4972355;28;20451;-70
2021/12/04 03:11:39;;;;;;;18.47;11.17;;;5.20;85.60;;;;;;4971607;28;20459;-70
2021/12/04 03:14:05;;;;;;;20.17;10.60;;;5.10;85.50;;;;;;4971328;28;20786;-71
2021/12/04 03:16:36;;;;;;;21.77;9.60;;;5.10;84.20;;;;;;4972016;28;20429;-70
2021/12/04 03:19:04;;;;;;;21.13;10.20;;;5.10;84.60;;;;;;4972183;28;20405;-70
2021/12/04 03:21:30;;;;;;;18.97;10.30;;;5.00;84.70;;;;;;4972333;28;20497;-69
2021/12/04 03:24:09;;;;;;;12.30;8.53;;;5.10;84.30;;;;;;4971185;28;20408;-70
2021/12/04 03:26:37;;;;;;;15.50;8.00;;;5.10;84.60;;;;;;4971954;28;20467;-69
2021/12/04 03:29:06;;;;;;;11.67;8.50;;;5.10;83.80;;;;;;4971305;28;20419;-70
2021/12/04 03:42:18;;;;;;;15.57;8.67;;;5.00;81.00;;;;;;4971387;28;20607;-69
2021/12/04 03:44:44;;;;;;;12.80;9.33;;;5.00;81.90;;;;;;4969873;28;20441;-70
2021/12/04 03:47:10;;;;;;;18.70;9.53;;;5.00;81.00;;;;;;4971731;28;20193;-70
2021/12/04 03:49:37;;;;;;;20.57;9.70;;;5.00;81.40;;;;;;4971351;28;20531;-70
2021/12/04 03:52:04;;;;;;;18.60;9.90;;;5.00;81.00;;;;;;4970825;28;20452;-70
2021/12/04 03:54:30;;;;;;;19.50;8.70;;;5.00;81.10;;;;;;4971791;28;20492;-70
2021/12/04 03:57:05;;;;;;;24.23;10.20;;;5.00;81.00;;;;;;4971629;28;20539;-71
2021/12/04 03:59:33;;;;;;;11.63;8.17;;;5.00;82.70;;;;;;4971761;28;20199;-71
2021/12/04 04:01:59;;;;;;;20.80;10.80;;;5.00;82.90;;;;;;4971215;28;20413;-74
2021/12/04 04:04:25;;;;;;;20.93;10.80;;;4.90;82.50;;;;;;4970948;28;20429;-71
2021/12/04 04:06:50;;;;;;;22.53;10.80;;;4.90;83.20;;;;;;4971409;28;20425;-71
2021/12/04 04:09:16;;;;;;;19.07;10.40;;;4.90;83.80;;;;;;4971541;28;20535;-70
2021/12/04 04:11:42;;;;;;;19.60;10.03;;;4.90;85.00;;;;;;4971629;28;20205;-69
2021/12/04 04:14:08;;;;;;;21.77;11.23;;;4.90;85.40;;;;;;4970563;28;20406;-71
2021/12/04 04:16:37;;;;;;;17.13;9.70;;;5.00;85.40;;;;;;4971323;28;20515;-71
2021/12/04 04:19:03;;;;;;;18.77;9.47;;;4.90;85.40;;;;;;4971416;28;20404;-70
2021/12/04 04:21:29;;;;;;;15.20;8.23;;;5.00;85.50;;;;;;4971218;28;20484;-70
2021/12/04 04:23:55;;;;;;;14.83;8.40;;;5.00;85.50;;;;;;4969924;28;20501;-70
2021/12/04 04:26:20;;;;;;;13.83;8.13;;;5.00;85.50;;;;;;4971400;28;20221;-70
2021/12/04 04:28:46;;;;;;;20.50;10.30;;;5.00;85.50;;;;;;4971409;28;20192;-71
2021/12/04 04:31:12;;;;;;;13.60;8.43;;;5.00;85.90;;;;;;4971116;28;20207;-71
2021/12/04 04:33:43;;;;;;;21.27;7.73;;;5.00;86.20;;;;;;4970427;28;20173;-70
2021/12/04 04:36:44;;;;;;;12.40;7.00;;;4.90;85.60;;;;;;4971380;28;20190;-70
2021/12/04 05:14:39;;;;;;;19.30;8.77;;;5.00;89.70;;;;;;4974068;28;20408;-70
2021/12/04 05:17:12;;;;;;;18.60;8.73;;;5.00;89.80;;;;;;4973962;28;20429;-71
2021/12/04 05:19:41;;;;;;;18.73;7.67;;;5.00;88.60;;;;;;4973224;28;20399;-70
2021/12/04 05:22:07;;;;;;;17.73;8.20;;;5.00;89.30;;;;;;4973316;28;20559;-71
2021/12/04 05:24:33;;;;;;;19.20;11.63;;;5.10;89.60;;;;;;4974203;28;20404;-70
2021/12/04 05:26:59;;;;;;;14.67;7.30;;;5.10;89.70;;;;;;4973881;28;20436;-70
2021/12/04 05:29:24;;;;;;;13.07;8.10;;;5.10;89.00;;;;;;4973873;28;20173;-70
2021/12/04 05:31:51;;;;;;;15.27;7.57;;;5.10;87.60;;;;;;4973493;28;20215;-70
2021/12/04 05:34:17;;;;;;;14.90;9.10;;;5.10;87.30;;;;;;4973197;28;20526;-70
2021/12/04 05:36:43;;;;;;;14.90;7.40;;;5.10;87.50;;;;;;4973731;28;20815;-70
2021/12/04 05:39:09;;;;;;;16.10;9.30;;;5.10;86.90;;;;;;4973247;28;20398;-71
2021/12/04 05:41:36;;;;;;;11.30;7.57;;;5.00;85.40;;;;;;4973833;28;20249;-71
2021/12/04 05:44:07;;;;;;;12.90;8.37;;;5.00;83.40;;;;;;4972579;28;20755;-71
2021/12/04 05:46:52;;;;;;;14.63;8.10;;;4.90;83.50;;;;;;4973471;28;20509;-71
2021/12/04 05:49:54;;;;;;;13.27;7.73;;;4.90;85.40;;;;;;4973792;28;20401;-70
2021/12/04 05:52:52;;;;;;;11.80;7.60;;;5.00;85.40;;;;;;4972251;28;20543;-71
2021/12/04 05:57:55;;;;;;;12.40;8.03;;;5.00;85.60;;;;;;4951941;29;20433;-71
2021/12/04 06:00:24;;;;;;;17.37;6.90;;;5.00;85.40;;;;;;4968982;28;20832;-70
2021/12/04 06:02:50;;;;;;;18.57;9.03;;;5.00;85.40;;;;;;4972472;28;20166;-70
2021/12/04 06:05:17;;;;;;;12.50;7.30;;;5.10;85.70;;;;;;4973344;28;20933;-71
2021/12/04 06:07:43;;;;;;;10.47;6.60;;;5.10;85.50;;;;;;4973245;28;20862;-71
2021/12/04 06:10:10;;;;;;;12.80;8.10;;;5.10;84.30;;;;;;4973132;28;20421;-71
2021/12/04 06:12:36;;;;;;;16.53;7.63;;;5.10;81.00;;;;;;4970822;28;20184;-72
2021/12/04 06:15:02;;;;;;;20.40;8.07;;;5.10;80.90;;;;;;4972455;28;20405;-70
2021/12/04 06:17:29;;;;;;;12.60;5.73;;;5.00;77.00;;;;;;4973050;28;20710;-70
2021/12/04 06:22:41;;;;;;;11.77;7.97;;;4.90;76.20;;;;;;4972862;28;20401;-71
2021/12/04 06:25:11;;;;;;;11.00;7.27;;;4.90;76.20;;;;;;4992359;28;20409;-69
2021/12/04 06:27:38;;;;;;;8.43;6.37;;;4.90;76.20;;;;;;4988798;28;20413;-71
2021/12/04 06:30:07;;;;;;;13.13;8.00;;;5.00;76.40;;;;;;4972793;28;20743;-71
2021/12/04 06:32:36;;;;;;;14.53;7.43;;;5.00;76.70;;;;;;4971433;28;20436;-71
2021/12/04 06:35:06;;;;;;;17.40;8.40;;;5.00;76.30;;;;;;4972643;28;20456;-70
2021/12/04 06:37:32;;;;;;;9.63;7.17;;;5.10;76.30;;;;;;4972823;28;20910;-71
2021/12/04 06:39:59;;;;;;;10.77;8.37;;;5.00;75.00;;;;;;4972998;28;20390;-70
2021/12/04 06:42:25;;;;;;;15.83;9.00;;;5.00;74.70;;;;;;4970531;28;20428;-71
2021/12/04 06:44:54;;;;;;;12.20;7.60;;;5.00;75.10;;;;;;4972602;28;20846;-71
2021/12/04 06:47:20;;;;;;;11.63;7.80;;;5.00;76.20;;;;;;4972656;28;20416;-71
2021/12/04 06:49:46;;;;;;;10.40;6.97;;;4.90;73.40;;;;;;4972641;28;20405;-71
2021/12/04 06:52:19;;;;;;;18.33;7.40;;;4.90;71.50;;;;;;4970839;28;20456;-70
2021/12/04 06:54:56;;;;;;;10.00;5.97;;;4.90;73.10;;;;;;4972708;28;20166;-71
2021/12/04 06:57:22;;;;;;;12.33;6.50;;;4.90;72.20;;;;;;4972639;28;20385;-70
2021/12/04 06:59:50;;;;;;;13.97;6.40;;;4.90;72.70;;;;;;4972488;28;20451;-70
2021/12/04 07:02:16;;;;;;;11.30;6.70;;;4.90;73.70;;;;;;4971460;28;20419;-70
2021/12/04 07:04:42;;;;;;;12.00;6.47;;;5.00;74.10;;;;;;4972444;28;20789;-70
2021/12/04 07:07:08;;;;;;;10.20;6.67;;;4.90;72.30;;;;;;4972406;28;20186;-71
2021/12/04 07:09:35;;;;;;;11.93;7.40;;;4.90;73.20;;;;;;4971638;28;20224;-69
2021/12/04 07:12:01;;;;;;;13.50;6.30;;;5.00;74.00;;;;;;4971333;28;20451;-74
2021/12/04 07:14:27;;;;;;;13.80;8.20;;;5.10;74.50;;;;;;4972266;28;20404;-70
2021/12/04 07:16:53;;;;;;;10.73;6.63;;;5.00;71.40;;;;;;4972213;28;20418;-70
2021/12/04 07:19:19;;;;;;;18.17;8.23;;;4.90;67.50;;;;;;4972194;28;20484;-70
2021/12/04 07:21:45;;;;;;;14.90;8.70;;;4.90;69.90;;;;;;4970960;28;20600;-71
2021/12/04 07:24:12;;;;;;;16.63;8.13;;;4.90;69.90;;;;;;4970566;28;20473;-70
2021/12/04 07:26:38;;;;;;;13.17;8.20;;;4.90;70.20;;;;;;4971242;28;20502;-71
2021/12/04 07:29:04;;;;;;;12.10;7.50;;;4.90;69.70;;;;;;4971997;28;20496;-70
2021/12/04 07:31:29;;;;;;;15.37;7.73;;;4.90;70.50;;;;;;4972133;28;20490;-70
2021/12/04 07:33:56;;;;;;;20.40;8.10;;;4.90;69.60;;;;;;4971190;28;20169;-71
2021/12/04 07:36:22;;;;;;;12.73;7.93;;;4.90;69.80;;;;;;4971935;28;20201;-71
2021/12/04 07:38:48;;;;;;;14.10;8.27;;;4.90;70.00;;;;;;4971831;28;20398;-71
2021/12/04 07:41:14;;;;;;;15.60;8.90;;;5.00;71.50;;;;;;4972078;28;20413;-70
2021/12/04 07:43:40;;;;;;;12.40;7.17;;;5.00;71.50;;;;;;4971056;28;20263;-72
2021/12/04 07:46:05;;;;;;;15.80;7.93;;;5.00;70.20;;;;;;4971068;28;20421;-70
2021/12/04 07:48:31;;;;;;;16.03;8.33;;;4.90;68.90;;;;;;4971884;28;20174;-72
2021/12/04 07:51:01;;;;;;;15.87;8.67;;;5.00;70.00;;;;;;4971640;28;20284;-71
2021/12/04 07:53:26;;;;;;;20.17;9.70;;;4.90;66.70;;;;;;4970799;28;20162;-71
2021/12/04 07:55:52;;;;;;;12.07;6.43;;;4.90;66.70;;;;;;4971809;28;20444;-70
2021/12/04 07:58:18;;;;;;;9.43;5.93;;;4.90;69.10;;;;;;4970466;28;20421;-70
2021/12/04 08:00:44;;;;;;;11.23;6.90;;;4.80;67.10;;;;;;4970368;28;20180;-70
2021/12/04 08:03:09;;;;;;;13.33;6.63;;;4.90;68.20;;;;;;4970760;28;20174;-71
2021/12/04 08:05:35;;;;;;;9.93;6.40;;;4.90;68.10;;;;;;4970897;28;20190;-71
2021/12/04 08:08:02;;;;;;;11.30;6.33;;;4.80;66.60;;;;;;4971502;28;20212;-70
2021/12/04 08:10:28;;;;;;;17.50;8.27;;;4.80;66.60;;;;;;4971684;28;20193;-70
2021/12/04 08:12:53;;;;;;;10.40;6.73;;;4.80;66.60;;;;;;4970566;28;20451;-71
2021/12/04 08:15:19;;;;;;;8.10;6.13;;;4.80;67.10;;;;;;4971459;28;20273;-70
2021/12/04 08:17:45;;;;;;;14.73;7.00;;;4.80;66.60;;;;;;4971454;28;20193;-72
2021/12/04 08:20:14;;;;;;;8.80;5.30;;;4.80;65.50;;;;;;4971552;28;20655;-70
2021/12/04 08:22:40;;;;;;;11.03;6.80;;;4.80;66.60;;;;;;4970599;28;20400;-70
2021/12/04 08:25:07;;;;;;;14.00;7.70;;;4.90;66.70;;;;;;4970504;28;20408;-72
2021/12/04 08:27:32;;;;;;;16.33;6.50;;;4.90;66.70;;;;;;4971654;28;20424;-71
2021/12/04 08:29:58;;;;;;;12.37;6.70;;;4.90;64.80;;;;;;4970115;28;20406;-70
2021/12/04 08:32:24;;;;;;;9.87;6.70;;;4.90;65.30;;;;;;4970401;28;20195;-71
2021/12/04 08:34:53;;;;;;;11.00;5.70;;;4.90;66.60;;;;;;4971671;28;20159;-71
2021/12/04 08:37:18;;;;;;;8.33;5.40;;;4.90;66.70;;;;;;4974572;28;20181;-71
2021/12/04 08:39:44;;;;;;;9.40;7.13;;;4.90;63.30;;;;;;4974804;28;20409;-70
2021/12/04 08:42:11;;;;;;;9.77;5.90;;;5.00;64.00;;;;;;4973803;28;20179;-71
2021/12/04 08:44:38;;;;;;;12.77;6.17;;;5.00;63.90;;;;;;4973667;28;20270;-71
2021/12/04 08:47:04;;;;;;;13.87;6.33;;;5.00;61.80;;;;;;4974325;28;20434;-70
2021/12/04 08:49:31;;;;;;;9.27;6.87;;;5.00;55.80;;;;;;4974299;28;20413;-72
2021/12/04 08:51:58;;;;;;;15.70;7.20;;;5.00;55.80;;;;;;4974272;28;20461;-72
2021/12/04 08:54:24;;;;;;;11.37;6.70;;;5.00;52.30;;;;;;4974432;28;20412;-70
2021/12/04 08:56:50;;;;;;;11.27;6.43;;;5.00;53.00;;;;;;4974358;28;20938;-71
2021/12/04 08:59:15;;;;;;;9.50;6.33;;;5.00;42.10;;;;;;4974272;28;20178;-71
2021/12/04 09:01:43;;;;;;;13.37;6.43;;;4.90;37.60;;;;;;4974259;28;20185;-71
2021/12/04 09:04:23;;;;;;;13.07;6.60;;;5.00;37.30;;;;;;4972598;28;20166;-72
2021/12/04 09:06:50;;;;;;;13.07;5.80;;;4.90;32.20;;;;;;4974186;28;20430;-72
2021/12/04 09:09:17;;;;;;;12.97;6.63;;;4.90;34.40;;;;;;4974076;28;20409;-72
2021/12/04 09:11:50;;;;;;;13.30;7.37;;;5.00;35.00;;;;;;4974021;28;20460;-72
2021/12/04 09:14:19;;;;;;;15.00;8.30;;;5.00;34.80;;;;;;4973345;28;20886;-70
2021/12/04 09:16:45;;;;;;;12.70;7.40;;;5.10;34.40;;;;;;4972670;28;20786;-71
2021/12/04 09:19:11;;;;;;;17.77;7.77;;;5.10;30.00;;;;;;4973620;28;20397;-72
2021/12/04 09:21:38;;;;;;;19.00;9.27;;;5.10;28.40;;;;;;4973537;28;20183;-71
2021/12/04 09:24:49;;;;;;;9.60;8.10;;;5.10;26.70;;;;;;4973077;28;20411;-71
2021/12/04 09:29:42;;;;;;;16.30;7.93;;;5.10;23.20;;;;;;4973618;28;20522;-72
2021/12/04 09:40:27;;;;;;;14.23;9.10;;;5.20;16.20;;;;;;4973497;28;20452;-71
2021/12/04 09:59:47;;;;;;;8.80;7.20;;;5.10;1.00;;;;;;4973550;28;20403;-72
2021/12/04 10:33:48;;;;;;;12.37;7.40;;;5.20;1.00;;;;;;4971943;28;20499;-71
2021/12/04 10:36:27;;;;;;;16.03;8.33;;;5.30;1.00;;;;;;4972766;28;20433;-71
2021/12/04 10:38:54;;;;;;;12.53;7.67;;;5.40;1.00;;;;;;4973108;28;20400;-72
2021/12/04 10:41:35;;;;;;;12.77;7.90;;;5.40;1.00;;;;;;4972825;28;20419;-70
2021/12/04 10:44:21;;;;;;;13.60;7.17;;;5.50;1.00;;;;;;4971866;28;20514;-71
2021/12/04 10:47:02;;;;;;;11.90;7.47;;;5.40;1.00;;;;;;4972773;28;20428;-71
2021/12/04 10:49:30;;;;;;;13.87;8.20;;;5.30;1.00;;;;;;4972308;28;20404;-72
2021/12/04 10:52:02;;;;;;;13.00;6.73;;;5.30;1.00;;;;;;4972324;28;20457;-69
2021/12/04 10:54:32;;;;;;;12.97;7.93;;;5.30;1.00;;;;;;4972716;28;20911;-69
2021/12/04 10:57:29;;;;;;;12.63;6.70;;;5.20;1.00;;;;;;4972314;28;20460;-71
2021/12/04 11:00:03;;;;;;;11.43;7.50;;;5.20;1.00;;;;;;4972455;28;20420;-70
2021/12/04 11:02:45;;;;;;;13.90;8.40;;;5.10;1.00;;;;;;4971730;28;20499;-69
2021/12/04 11:40:47;;;;;;;13.40;7.87;;;5.00;1.00;;;;;;4971644;28;20496;-72
2021/12/04 11:43:17;;;;;;;11.37;7.60;;;5.00;1.00;;;;;;4970884;28;20409;-71
2021/12/04 11:48:43;;;;;;;15.80;7.97;;;5.00;1.00;;;;;;4971942;28;20405;-71
2021/12/04 11:51:18;;;;;;;16.67;9.33;;;5.00;1.00;;;;;;4972084;28;20458;-70
2021/12/04 11:53:44;;;;;;;15.57;9.60;;;5.00;1.00;;;;;;4971129;28;20500;-70
2021/12/04 11:56:19;;;;;;;13.47;8.77;;;4.90;1.00;;;;;;4971673;28;20432;-71
2021/12/04 11:58:47;;;;;;;14.43;9.13;;;4.90;1.00;;;;;;4971632;28;20466;-71
2021/12/04 12:01:30;;;;;;;16.27;8.60;;;4.90;1.00;;;;;;4971278;28;20415;-71
2021/12/04 12:04:04;;;;;;;18.50;11.20;;;5.00;1.00;;;;;;4970871;28;20827;-71
2021/12/04 12:06:42;;;;;;;19.40;9.77;;;5.00;1.00;;;;;;4971622;28;20440;-71
2021/12/04 12:09:26;;;;;;;21.67;10.40;;;5.00;1.00;;;;;;4972621;28;20421;-71
2021/12/04 12:11:55;;;;;;;17.47;10.50;;;5.10;1.00;;;;;;4974602;28;20642;-71
2021/12/04 12:14:38;;;;;;;14.57;8.90;;;5.20;1.00;;;;;;4974507;28;20734;-70
2021/12/04 12:17:05;;;;;;;10.73;8.47;;;5.20;1.00;;;;;;4974931;28;20428;-71
2021/12/04 12:19:40;;;;;;;11.63;9.00;;;5.20;1.00;;;;;;4975020;28;20460;-71
2021/12/04 12:22:22;;;;;;;13.33;8.30;;;5.20;1.00;;;;;;4973681;28;20413;-71
2021/12/04 12:27:42;;;;;;;14.00;9.17;;;5.20;1.00;;;;;;4974984;28;20990;-71
2021/12/04 12:33:24;;;;;;;13.33;8.30;;;5.20;1.00;;;;;;4974109;28;20413;-71
2021/12/04 12:36:11;;;;;;;18.73;9.83;;;5.20;1.00;;;;;;4974694;28;20964;-72
2021/12/04 12:38:41;;;;;;;14.43;9.63;;;5.30;1.00;;;;;;4974222;28;20411;-72
2021/12/04 12:41:34;;;;;;;17.40;10.80;;;5.20;1.00;;;;;;4974550;28;20435;-71
2021/12/04 12:44:24;;;;;;;13.83;7.97;;;5.20;1.00;;;;;;4973621;28;20513;-71
2021/12/04 12:47:02;;;;;;;17.37;9.67;;;5.20;1.00;;;;;;4974465;28;20536;-71
2021/12/04 12:49:38;;;;;;;20.60;9.43;;;5.20;1.00;;;;;;4974763;28;20562;-72
2021/12/04 12:52:21;;;;;;;20.47;10.57;;;5.20;1.00;;;;;;4973501;28;20456;-71
2021/12/04 12:55:05;;;;;;;22.17;11.43;;;5.20;1.00;;;;;;4974488;28;20754;-71
2021/12/04 12:57:41;;;;;;;19.33;9.63;;;5.10;1.00;;;;;;4973906;28;20412;-72
2021/12/04 13:11:45;;;;;;;15.03;11.30;;;5.30;1.00;;;;;;4974214;28;20455;-71
2021/12/04 13:14:13;;;;;;;18.80;10.40;;;5.30;1.00;;;;;;4972962;28;20415;-72
2021/12/04 13:16:42;;;;;;;18.97;10.40;;;5.30;1.00;;;;;;4972660;28;20461;-72
2021/12/04 13:19:12;;;;;;;15.70;9.43;;;5.30;1.00;;;;;;4974062;28;20907;-73
2021/12/04 13:21:41;;;;;;;11.60;7.70;;;5.30;1.00;;;;;;4973226;28;20413;-72
2021/12/04 13:24:10;;;;;;;14.03;9.67;;;5.30;1.00;;;;;;4973114;28;20418;-71
2021/12/04 13:26:39;;;;;;;21.17;10.47;;;5.30;1.00;;;;;;4972583;28;20814;-71
2021/12/04 13:29:08;;;;;;;18.33;9.10;;;5.40;1.00;;;;;;4973793;28;20492;-72
2021/12/04 13:31:37;;;;;;;21.03;11.57;;;5.40;1.00;;;;;;4973815;28;20487;-72
2021/12/04 13:34:08;;;;;;;16.10;10.10;;;5.40;1.00;;;;;;4972683;28;20909;-71
2021/12/04 13:36:35;;;;;;;15.03;7.80;;;5.40;1.00;;;;;;4973770;28;20500;-72
2021/12/04 13:39:04;;;;;;;12.53;6.73;;;5.40;1.00;;;;;;4973737;28;20435;-72
2021/12/04 13:41:31;;;;;;;12.10;8.67;;;5.30;1.00;;;;;;4973609;28;20413;-72
2021/12/04 13:44:00;;;;;;;13.57;7.70;;;5.30;1.00;;;;;;4972750;28;20419;-72
2021/12/04 13:46:26;;;;;;;11.83;8.40;;;5.30;1.00;;;;;;4973684;28;20432;-72
2021/12/04 13:48:59;;;;;;;10.53;7.60;;;5.30;1.00;;;;;;4973874;28;20453;-72
2021/12/04 13:51:25;;;;;;;12.03;7.23;;;5.30;1.00;;;;;;4973012;28;20543;-73
2021/12/04 13:53:51;;;;;;;8.20;6.70;;;5.30;1.00;;;;;;4972632;28;20486;-72
2021/12/04 13:56:19;;;;;;;8.87;6.90;;;5.40;1.00;;;;;;4973413;28;20200;-72
2021/12/04 13:58:49;;;;;;;7.60;5.80;;;5.30;1.00;;;;;;4973661;28;20433;-72
2021/12/04 14:01:16;;;;;;;8.57;5.53;;;5.30;1.00;;;;;;4973411;28;20413;-73
2021/12/04 14:03:42;;;;;;;9.53;6.10;;;5.30;1.00;;;;;;4972450;28;20502;-72
2021/12/04 14:06:13;;;;;;;13.00;7.10;;;5.40;1.00;;;;;;4972974;28;20433;-72
2021/12/04 14:08:39;;;;;;;11.03;7.17;;;5.30;1.00;;;;;;4973482;28;20408;-72
2021/12/04 14:11:05;;;;;;;7.23;6.60;;;5.30;1.00;;;;;;4973344;28;20482;-72
2021/12/04 14:13:31;;;;;;;9.97;7.40;;;5.20;1.00;;;;;;4972516;28;20411;-72
2021/12/04 14:15:57;;;;;;;12.07;7.77;;;5.20;1.00;;;;;;4973097;28;20433;-71
2021/12/04 14:18:25;;;;;;;13.47;7.43;;;5.30;1.00;;;;;;4973276;28;20178;-71
2021/12/04 14:20:54;;;;;;;18.40;8.23;;;5.20;1.00;;;;;;4973059;28;20180;-73
2021/12/04 14:23:23;;;;;;;9.33;6.57;;;5.30;1.00;;;;;;4972063;28;20900;-72
2021/12/04 14:25:54;;;;;;;10.47;6.67;;;5.30;1.00;;;;;;4972602;28;20462;-73
2021/12/04 14:28:22;;;;;;;10.50;6.57;;;5.30;1.00;;;;;;4973133;28;20468;-72
2021/12/04 14:30:49;;;;;;;12.20;7.73;;;5.40;1.00;;;;;;4972992;28;20462;-72
2021/12/04 14:33:23;;;;;;;12.00;6.30;;;5.40;1.00;;;;;;4971996;28;20407;-73
2021/12/04 14:35:51;;;;;;;11.20;7.27;;;5.40;1.00;;;;;;4972785;28;20972;-73
2021/12/04 14:38:26;;;;;;;11.10;7.13;;;5.30;1.00;;;;;;4973027;28;20780;-72
2021/12/04 14:40:58;;;;;;;10.30;7.00;;;5.40;1.00;;;;;;4972971;28;20412;-71
2021/12/04 14:43:26;;;;;;;12.60;7.53;;;5.40;1.00;;;;;;4971592;28;20444;-73
2021/12/04 14:45:56;;;;;;;9.30;6.63;;;5.40;1.00;;;;;;4972402;28;20454;-72
2021/12/04 14:48:37;;;;;;;19.77;7.47;;;5.40;1.00;;;;;;4972900;28;20405;-72
2021/12/04 14:51:14;;;;;;;9.27;6.07;;;5.50;1.00;;;;;;4972734;28;20460;-72
2021/12/04 14:54:01;;;;;;;8.97;7.13;;;5.40;1.00;;;;;;4971372;28;20428;-73
2021/12/04 14:56:29;;;;;;;6.00;5.47;;;5.40;1.00;;;;;;4972517;28;20433;-72
2021/12/04 14:58:55;;;;;;;9.70;6.50;;;5.50;1.00;;;;;;4972788;28;20394;-72
2021/12/04 15:01:24;;;;;;;8.53;6.50;;;5.40;1.00;;;;;;4972244;28;20499;-73
2021/12/04 15:03:58;;;;;;;14.83;6.50;;;5.40;1.00;;;;;;4971590;28;20409;-73
2021/12/04 15:06:25;;;;;;;8.50;6.40;;;5.40;1.00;;;;;;4972266;28;20436;-72
2021/12/04 15:08:58;;;;;;;13.93;6.03;;;5.40;1.00;;;;;;4972362;28;20409;-73
2021/12/04 15:11:31;;;;;;;9.03;5.87;;;5.40;1.00;;;;;;4972352;28;20489;-72
2021/12/04 15:14:03;;;;;;;6.70;6.00;;;5.40;1.00;;;;;;4971296;28;20413;-73
2021/12/04 15:16:39;;;;;;;9.40;6.60;;;5.40;1.00;;;;;;4972208;28;20428;-73
2021/12/04 15:19:10;;;;;;;8.83;7.67;;;5.30;1.00;;;;;;4972185;28;20454;-74
2021/12/04 15:21:41;;;;;;;11.00;6.57;;;5.30;1.00;;;;;;4971847;28;20459;-73
2021/12/04 15:24:13;;;;;;;11.77;7.27;;;5.30;1.00;;;;;;4971234;28;20420;-73
2021/12/04 15:26:42;;;;;;;13.70;7.93;;;5.30;1.00;;;;;;4972260;28;20436;-73
2021/12/04 15:29:15;;;;;;;11.93;7.97;;;5.30;1.00;;;;;;4972211;28;20420;-73
2021/12/04 15:31:41;;;;;;;7.00;5.83;;;5.30;1.00;;;;;;4971978;28;20453;-73
2021/12/04 15:34:07;;;;;;;11.30;6.63;;;5.20;1.00;;;;;;4971153;28;20413;-74
2021/12/04 15:36:36;;;;;;;11.37;7.63;;;5.20;1.00;;;;;;4971902;28;20229;-73
2021/12/04 15:39:11;;;;;;;11.40;7.20;;;5.20;1.00;;;;;;4971532;28;20169;-74
2021/12/04 15:47:23;;;;;;;8.57;6.70;;;5.30;1.00;;;;;;4971818;28;20454;-74
2021/12/04 15:55:33;;;;;;;12.20;6.43;;;5.20;1.00;;;;;;4971574;28;20422;-73
2021/12/04 15:58:05;;;;;;;10.67;7.00;;;5.20;1.00;;;;;;4971830;28;20398;-73
2021/12/04 16:00:33;;;;;;;10.93;6.57;;;5.30;1.00;;;;;;4971741;28;20411;-74
2021/12/04 16:03:05;;;;;;;11.57;6.60;;;5.20;1.00;;;;;;4970831;28;20492;-73
2021/12/04 16:05:34;;;;;;;14.93;7.60;;;5.20;1.00;;;;;;4971838;28;20455;-74
2021/12/04 16:08:14;;;;;;;9.80;7.17;;;5.20;1.00;;;;;;4970436;28;20801;-74
2021/12/04 16:10:42;;;;;;;7.30;5.60;;;5.20;1.00;;;;;;4971424;28;20886;-73